Loging...

KPDC, Korea Polar Data Center

Korea Polar Data Center Scientific observations and results from Antarctica shall
be exchanged and made freely available

Keyword Search

Advanced Search

Search 242 data out of 28,403

Metadata Search Results1
No. Title Reg. Date
1 [KOPRI-KPDC-00000321]2013 CTD Data, Ross Sea of Antarctic 2013-03-22
2 [KOPRI-KPDC-00000322]2013 LADCP Data, Antarctic 2013-03-22
3 [KOPRI-KPDC-00000714]ANA04B CTD 2014-10-02
4 [KOPRI-KPDC-00000715]ANA04B LADCP 2014-10-06
5 [KOPRI-KPDC-00000716]ANA04B Mooring 2014-10-08
6 [KOPRI-KPDC-00001224]ANA09B Seismic Sparker Survey Lines 2019-12-13
7 [KOPRI-KPDC-00001075]Antarctic Marine Benthic Invertebrate Specimens in Bransfield Strait, Maxwell Bay and Marian Cove Collected from ARAON (April, 2018) 2020-02-17
8 [KOPRI-KPDC-00000446]Antarctic Marine Benthic Invertebrate Specimens in Marian Cove (2009-2014) 2020-02-17
9 [KOPRI-KPDC-00000370]A study on the distribution characteristics of dissolved inorganic carbon (DIC) in the Amundsen Sea in 2011. 2013-07-05
10 [KOPRI-KPDC-00000371]A study on the distribution characteristics of dissolved inorganic carbon (DIC) in the Amundsen Sea in 2012. 2013-07-05
11 [KOPRI-KPDC-00000431]A study on the distribution characteristics of pH in the Amundsen Sea in 2011. 2013-08-26
12 [KOPRI-KPDC-00000338]Atmospheric and oceanic Methane : 2013 The Ross Sea 2013-06-12
13 [KOPRI-KPDC-00000363]Concentration of atmospheric and oceanic carbon dioxide: 2013 Terra Nova Bay - Jang Bogo Station 2013-06-25
14 [KOPRI-KPDC-00000351]Concentration of atmospheric and oceanic carbon monoxide: 2013 Teranova Bay-the Jang Bogo Station Cruise 2013-06-18
15 [KOPRI-KPDC-00000350]Concentration of atmospheric and oceanic carbon monoxide: 2013 the Ross Sea 2013-06-18
16 [KOPRI-KPDC-00000395]Concentration of atmospheric and oceanic nitrous oxide : 2013 The Ross Sea 2013-08-01
17 [KOPRI-KPDC-00000390]Concentration of atmospheric mercury: 2013 Ross Sea 2013-07-24
18 [KOPRI-KPDC-00000416]Concentration of atmospheric ozone: 2013 Ross Sea 2013-08-20
19 [KOPRI-KPDC-00000415]Concentration of atmospheric ozone: 2013 Ross Sea 2013-08-20
20 [KOPRI-KPDC-00000384]Concentrations of atmospheric and oceanic molecular H2 : 2013 the Ross Sea 2013-07-22
21 [KOPRI-KPDC-00000399]Concentrations of atmospheric NOx: 2013 Ross Sea 2013-08-08
22 [KOPRI-KPDC-00001195]CTD data in the Marian Cove, Antarcica from 2011 to 2019 2019-09-23
23 [KOPRI-KPDC-00000063]CTD measurements from Antarctic Peninsula region (KARP 1996) 2011-12-09
24 [KOPRI-KPDC-00000016]CTD measurements from Antarctic Peninsula region (KARP 1996-2006) 2011-12-08
25 [KOPRI-KPDC-00000064]CTD measurements from Antarctic Peninsula region (KARP 1997) 2011-12-09
26 [KOPRI-KPDC-00000065]CTD measurements from Antarctic Peninsula region (KARP 1998) 2011-12-09
27 [KOPRI-KPDC-00000066]CTD measurements from Antarctic Peninsula region (KARP 1999) 2011-12-09
28 [KOPRI-KPDC-00000067]CTD measurements from Antarctic Peninsula region (KARP 2000) 2011-12-09
29 [KOPRI-KPDC-00000068]CTD measurements from Antarctic Peninsula region (KARP 2001) 2011-12-09
30 [KOPRI-KPDC-00000069]CTD measurements from Antarctic Peninsula region (KARP 2002) 2011-12-09
31 [KOPRI-KPDC-00000070]CTD measurements from Antarctic Peninsula region (KARP 2003) 2011-12-09
32 [KOPRI-KPDC-00000071]CTD measurements from Antarctic Peninsula region (KARP 2004) 2011-12-09
33 [KOPRI-KPDC-00000073]CTD measurements from Antarctic Peninsula region (KARP 2006) 2011-12-09
34 [KOPRI-KPDC-00000074]CTD measurements from Antarctic Peninsula region (KARP 2007) 2011-12-09
35 [KOPRI-KPDC-00000075]CTD measurements from Antarctic Peninsula region (KARP 2008) 2011-12-09
36 [KOPRI-KPDC-00000076]CTD measurements from Antarctic Peninsula region (KARP 2009) 2011-12-09
37 [KOPRI-KPDC-00000077]CTD measurements from Antarctic Peninsula region (KARP 2010) 2011-12-10
38 [KOPRI-KPDC-00000078]CTD measurements from Antarctic Peninsula region (KARP 2011) 2011-12-10
39 [KOPRI-KPDC-00001194]CTD(Pier) data in the Marian Cove from 2011 to 2019 2019-09-23
40 [KOPRI-KPDC-00001431]CTD profiles observed in front of the Thwaites Glacier, Amundsen Sea, in February 2020 (ANA10B) 2020-04-06
41 [KOPRI-KPDC-00001062]CTD profiles observed in the Terra Nova Bay, Ross Sea, in December, 2014 (ANA05A) 2020-01-28
42 [KOPRI-KPDC-00001063]CTD profiles observed in the Terra Nova Bay, Ross Sea, in January, 2017 (ANA07C) 2020-01-28
43 [KOPRI-KPDC-00001165]CTD profiles observed in the Terra Nova Bay, Ross Sea, in January, 2019 (ANA09B) 2019-06-28
44 [KOPRI-KPDC-00000895]CTD profiles observed in the Terra Nova Bay, Ross Sea, in March, 2018 (ANA08C) 2020-01-28
45 [KOPRI-KPDC-00001435]CTD profiles observed in the Terra Nova Bay, Ross Sea, in March, 2020 (ANA10C) 2020-04-13
46 [KOPRI-KPDC-00000601]Depth profiles of temperature and salinity in the Ross Sea, Antarctica, in December 2015 2020-01-28
47 [KOPRI-KPDC-00000226]Distributions and diversities of viruses and bacteria in the Larsen A in the Anatarctic Weddell Sea 2012-06-18
48 [KOPRI-KPDC-00000481]Distributions of bacteria and viruses in the Amundsen Sea 2013/14 2014-10-02
49 [KOPRI-KPDC-00001257]Extract Library (2019) 2019-10-15
50 [KOPRI-KPDC-00001313]Fluorometer data on ARAON DaDis for Antarctic cruise, 2010/2011 2019-11-08
51 [KOPRI-KPDC-00001314]Fluorometer data on ARAON DaDis for Antarctic cruise, 2011/2012 2019-11-08
52 [KOPRI-KPDC-00001315]Fluorometer data on ARAON DaDis for Antarctic cruise, 2012/2013 2019-11-08
53 [KOPRI-KPDC-00001316]Fluorometer data on ARAON DaDis for Antarctic cruise, 2013/2014 2019-11-08
54 [KOPRI-KPDC-00001317]Fluorometer data on ARAON DaDis for Antarctic cruise, 2014/2015 2019-11-08
55 [KOPRI-KPDC-00001318]Fluorometer data on ARAON DaDis for Antarctic cruise, 2015/2016 2019-11-08
56 [KOPRI-KPDC-00001319]Fluorometer data on ARAON DaDis for Antarctic cruise, 2016/2017 2019-11-08
57 [KOPRI-KPDC-00001320]Fluorometer data on ARAON DaDis for Antarctic cruise, 2017/2018 2019-11-08
58 [KOPRI-KPDC-00001321]Fluorometer data on ARAON DaDis for Antarctic cruise, 2018/2019 2019-11-08
59 [KOPRI-KPDC-00001447]Fluorometer data on ARAON DaDis for Antarctic cruise, 2019/2020 2020-06-25
60 [KOPRI-KPDC-00001294]GPS data on ARAON DaDis for Antarctic cruise, 2010/2011 2019-11-08
61 [KOPRI-KPDC-00001295]GPS data on ARAON DaDis for Antarctic cruise, 2011/2012 2019-11-08
62 [KOPRI-KPDC-00001296]GPS data on ARAON DaDis for Antarctic cruise, 2012/2013 2019-11-08
63 [KOPRI-KPDC-00001297]GPS data on ARAON DaDis for Antarctic cruise, 2013/2014 2019-11-08
64 [KOPRI-KPDC-00001298]GPS data on ARAON DaDis for Antarctic cruise, 2014/2015 2019-11-08
65 [KOPRI-KPDC-00001299]GPS data on ARAON DaDis for Antarctic cruise, 2015/2016 2019-11-08
66 [KOPRI-KPDC-00001300]GPS data on ARAON DaDis for Antarctic cruise, 2016/2017 2019-11-08
67 [KOPRI-KPDC-00001301]GPS data on ARAON DaDis for Antarctic cruise, 2017/2018 2019-11-08
68 [KOPRI-KPDC-00001302]GPS data on ARAON DaDis for Antarctic cruise, 2018/2019 2019-11-08
69 [KOPRI-KPDC-00001449]GPS data on ARAON DaDis for Antarctic cruise, 2019/2020 2020-06-25
70 [KOPRI-KPDC-00001332]Gyro compass data on ARAON DaDis for Antarctic cruise, 2010/2011 2019-11-08
71 [KOPRI-KPDC-00001333]Gyro compass data on ARAON DaDis for Antarctic cruise, 2011/2012 2019-11-08
72 [KOPRI-KPDC-00001334]Gyro compass data on ARAON DaDis for Antarctic cruise, 2012/2013 2019-11-08
73 [KOPRI-KPDC-00001335]Gyro compass data on ARAON DaDis for Antarctic cruise, 2013/2014 2019-11-08
74 [KOPRI-KPDC-00001336]Gyro compass data on ARAON DaDis for Antarctic cruise, 2014/2015 2019-11-08
75 [KOPRI-KPDC-00001337]Gyro compass data on ARAON DaDis for Antarctic cruise, 2015/2016 2019-11-08
76 [KOPRI-KPDC-00001338]Gyro compass data on ARAON DaDis for Antarctic cruise, 2016/2017 2019-11-08
77 [KOPRI-KPDC-00001339]Gyro compass data on ARAON DaDis for Antarctic cruise, 2017/2018 2019-11-08
78 [KOPRI-KPDC-00001340]Gyro compass data on ARAON DaDis for Antarctic cruise, 2018/2019 2019-11-08
79 [KOPRI-KPDC-00001446]Gyro compass data on ARAON DaDis for Antarctic cruise, 2019/2020 2020-06-25
80 [KOPRI-KPDC-00001171]Hydroacoustic data in Terra Nova Bay, 2018 2019-07-08
81 [KOPRI-KPDC-00000284]Korea Seismic Line 2008 2013-01-08
82 [KOPRI-KPDC-00000283]Korea Seismic Line 2009 2013-01-02
83 [KOPRI-KPDC-00000277]Korea Seismic Line 2010 2012-11-20
84 [KOPRI-KPDC-00000320]Korea Seismic Line 2012 2013-03-20
85 [KOPRI-KPDC-00001432]LADCP data observed in front of the Thwaites Glacier, Amundsen Sea, in February, 2020 (ANA10B) 2020-04-06
86 [KOPRI-KPDC-00001064]LADCP data observed in the Terra Nova Bay, Ross Sea, in December, 2014 (ANA05A) 2020-01-28
87 [KOPRI-KPDC-00001061]LADCP data observed in the Terra Nova Bay, Ross Sea, in December, 2015 (ANA06A) 2020-01-28
88 [KOPRI-KPDC-00001065]LADCP data observed in the Terra Nova Bay, Ross Sea, in January, 2017 (ANA07C) 2020-01-28
89 [KOPRI-KPDC-00001164]LADCP data observed in the Terra Nova Bay, Ross Sea, in January, 2019 (ANA09B) 2019-06-28
90 [KOPRI-KPDC-00000896]LADCP data observed in the Terra Nova Bay, Ross Sea, in March, 2018 (ANA08C) 2020-01-28
91 [KOPRI-KPDC-00001434]LADCP data observed in the Terra Nova Bay, Ross Sea, in March, 2020 (ANA10C) 2020-04-13
92 [KOPRI-KPDC-00001258]Metabolite Library (2019) 2019-10-15
93 [KOPRI-KPDC-00001196]mooring data in the Marian Cove from 2018 to 2019 2019-09-23
94 [KOPRI-KPDC-00001352]Motion sensor data on ARAON DaDis for Antarctic cruise, 2010/2011 2019-11-12
95 [KOPRI-KPDC-00001353]Motion sensor data on ARAON DaDis for Antarctic cruise, 2011/2012 2019-11-12
96 [KOPRI-KPDC-00001354]Motion sensor data on ARAON DaDis for Antarctic cruise, 2012/2013 2019-11-12
97 [KOPRI-KPDC-00001355]Motion sensor data on ARAON DaDis for Antarctic cruise, 2013/2014 2019-11-12
98 [KOPRI-KPDC-00001356]Motion sensor data on ARAON DaDis for Antarctic cruise, 2014/2015 2019-11-12
99 [KOPRI-KPDC-00001357]Motion sensor data on ARAON DaDis for Antarctic cruise, 2015/2016 2019-11-12
100 [KOPRI-KPDC-00001358]Motion sensor data on ARAON DaDis for Antarctic cruise, 2016/2017 2019-11-12